Accueil
METAR-TAF:

METAR-TAF

Aéroports :

Fort Collins-Loveland Municipal Airport

Fort Collins / Loveland, Colorado, États-Unis

latitude: 40-27N, longitude: 105-01W, altitude: 1529 m

Observation

Le bulletin a été fait il y a 56 minutes, à 14:56 UTC
Vent 8 kt de nord/nord-est
Température 26°C
Humidité 30%
Pression 1020 hPa
Visibilité: 16.1 km
Ciel clair

METAR: KFNL 021456Z 03008KT 10SM CLR 26/07 A3013 RMK AO2 SLP129 T02560072 53013

Heure: 09:52 (15:52 UTC)


TAF: absent

Observations et prévisions météorologiques de plus de 4000 aéroports (messages METAR et TAF).

Les stations disponibles sont représentées par des disques jaunes et rouges sur la carte.

Passer la souris dessus pour voir le nom de la station.

Cliquer dessus pour voir les observations et prévisions météorologiques.

Pour changer de carte: cliquez sur les boutons verts avec une croix noire pour zoomer, sur le bouton vert avec un tiret pour effectuer un zoom arrière, ou sur les flèches vertes pour les cartes adjacentes.


METAR-TAF: